Time;durP1;ratioP1;P1;durP2;ratioP2;P2;SDS_P1;SDS_P2;PMS_P1;PMS_P2;Temp;Humidity;BMP_temperature;BMP_pressure;BME280_temperature;BME280_humidity;BME280_pressure;Samples;Min_cycle;Max_cycle;Signal;HPM_P1;HPM_P2
2022/10/08 00:01:01;;;;;;;;;;;20.30;99.90;;;;;;5007664;28;20414;-68
2022/10/08 00:03:30;;;;;;;;;;;20.30;99.90;;;;;;5007486;28;19929;-70
2022/10/08 00:06:03;;;;;;;;;;;20.20;99.90;;;;;;5009006;28;19925;-69
2022/10/08 00:08:31;;;;;;;;;;;20.20;99.90;;;;;;5012001;28;19940;-68
2022/10/08 00:10:59;;;;;;;;;;;20.30;99.90;;;;;;5017141;28;19929;-69
2022/10/08 00:13:27;;;;;;;;;;;20.30;99.90;;;;;;5002920;28;19926;-68
2022/10/08 00:15:55;;;;;;;;;;;20.30;99.90;;;;;;5013474;28;19930;-68
2022/10/08 00:18:22;;;;;;;;;;;20.30;99.90;;;;;;5011917;28;20304;-69
2022/10/08 00:20:50;;;;;;;;;;;20.20;99.90;;;;;;5005443;28;19930;-69
2022/10/08 00:23:17;;;;;;;;;;;20.20;99.90;;;;;;5014055;28;19926;-69
2022/10/08 00:25:44;;;;;;;;;;;20.20;99.90;;;;;;5015468;28;20418;-69
2022/10/08 00:28:12;;;;;;;;;;;20.20;99.90;;;;;;5015181;28;19933;-69
2022/10/08 00:30:40;;;;;;;;;;;20.20;99.90;;;;;;4998024;28;20124;-69
2022/10/08 00:33:07;;;;;;;;;;;20.20;99.90;;;;;;5010803;28;20302;-70
2022/10/08 00:35:35;;;;;;;;;;;20.20;99.90;;;;;;5018012;28;20305;-70
2022/10/08 00:38:02;;;;;;;;;;;20.20;99.90;;;;;;5020531;28;20582;-68
2022/10/08 00:40:29;;;;;;;;;;;20.20;99.90;;;;;;5021107;28;19929;-70
2022/10/08 00:42:58;;;;;;;;;;;20.20;99.90;;;;;;5013351;28;19925;-70
2022/10/08 00:45:25;;;;;;;;;;;20.20;99.90;;;;;;5003257;28;19930;-71
2022/10/08 00:47:56;;;;;;;;;;;20.20;99.90;;;;;;5011577;28;20013;-67
2022/10/08 00:50:32;;;;;;;;;;;20.10;99.90;;;;;;5005130;28;19948;-70
2022/10/08 00:53:00;;;;;;;;;;;20.10;99.90;;;;;;5022491;28;19936;-70
2022/10/08 00:55:28;;;;;;;;;;;20.10;99.90;;;;;;5022880;28;19971;-70
2022/10/08 00:58:00;;;;;;;;;;;20.10;99.90;;;;;;5015936;28;19930;-68
2022/10/08 01:00:28;;;;;;;;;;;20.10;99.90;;;;;;4999218;28;20314;-69
2022/10/08 01:02:55;;;;;;;;;;;20.10;99.90;;;;;;5008398;28;19930;-69
2022/10/08 01:05:42;;;;;;;;;;;20.10;99.90;;;;;;5014593;28;19936;-67
2022/10/08 01:08:14;;;;;;;;;;;20.10;99.90;;;;;;4988709;28;20739;-69
2022/10/08 01:10:50;;;;;;;;;;;20.10;99.90;;;;;;5020902;28;20324;-69
2022/10/08 01:13:40;;;;;;;;;;;20.10;99.90;;;;;;5001947;28;19926;-68
2022/10/08 01:16:19;;;;;;;;;;;20.10;99.90;;;;;;5008020;28;19929;-70
2022/10/08 01:18:51;;;;;;;;;;;20.10;99.90;;;;;;5006497;28;19929;-67
2022/10/08 01:21:42;;;;;;;;;;;20.10;99.90;;;;;;5017309;28;20304;-69
2022/10/08 01:24:18;;;;;;;;;;;20.00;99.90;;;;;;5016154;28;20033;-69
2022/10/08 01:26:51;;;;;;;;;;;20.10;99.90;;;;;;5006386;28;19932;-67
2022/10/08 01:29:23;;;;;;;;;;;20.00;99.90;;;;;;5000610;28;19936;-70
2022/10/08 01:31:52;;;;;;;;;;;20.00;99.90;;;;;;5015248;28;19937;-68
2022/10/08 01:34:29;;;;;;;;;;;20.00;99.90;;;;;;5016838;28;19929;-67
2022/10/08 01:36:57;;;;;;;;;;;20.00;99.90;;;;;;5008003;28;19925;-69
2022/10/08 01:39:26;;;;;;;;;;;20.00;99.90;;;;;;5010736;28;19937;-68
2022/10/08 01:41:57;;;;;;;;;;;20.00;99.90;;;;;;5001864;28;20371;-68
2022/10/08 01:44:32;;;;;;;;;;;20.00;99.90;;;;;;5015523;28;19930;-69
2022/10/08 01:47:01;;;;;;;;;;;20.00;99.90;;;;;;5006667;28;19936;-69
2022/10/08 01:49:31;;;;;;;;;;;20.00;99.90;;;;;;5017842;28;19933;-69
2022/10/08 01:52:03;;;;;;;;;;;20.00;99.90;;;;;;5011289;28;20460;-67
2022/10/08 01:54:31;;;;;;;;;;;20.00;99.90;;;;;;4997295;28;20300;-68
2022/10/08 01:57:00;;;;;;;;;;;20.00;99.90;;;;;;5005742;28;19930;-69
2022/10/08 01:59:31;;;;;;;;;;;20.00;99.90;;;;;;5003724;28;20365;-69
2022/10/08 02:01:58;;;;;;;;;;;20.00;99.90;;;;;;5013413;28;19929;-68
2022/10/08 02:04:34;;;;;;;;;;;20.00;99.90;;;;;;5005104;28;19933;-67
2022/10/08 02:07:06;;;;;;;;;;;19.90;99.90;;;;;;4998034;28;20975;-68
2022/10/08 02:09:37;;;;;;;;;;;20.00;99.90;;;;;;5003204;28;20352;-67
2022/10/08 02:12:04;;;;;;;;;;;20.00;99.90;;;;;;5012418;28;19929;-71
2022/10/08 02:14:32;;;;;;;;;;;20.00;99.90;;;;;;5004650;28;19940;-68
2022/10/08 02:17:16;;;;;;;;;;;20.00;99.90;;;;;;5008809;28;19929;-68
2022/10/08 02:19:51;;;;;;;;;;;19.90;99.90;;;;;;5014293;28;20411;-71
2022/10/08 02:22:20;;;;;;;;;;;19.90;99.90;;;;;;5018950;28;19932;-69
2022/10/08 02:24:51;;;;;;;;;;;19.90;99.90;;;;;;5012003;28;19925;-68
2022/10/08 02:27:24;;;;;;;;;;;19.90;99.90;;;;;;5023920;28;19936;-70
2022/10/08 02:30:06;;;;;;;;;;;19.90;99.90;;;;;;5010234;28;19929;-70
2022/10/08 02:32:35;;;;;;;;;;;19.90;99.90;;;;;;5008752;28;19925;-69
2022/10/08 02:35:10;;;;;;;;;;;19.90;99.90;;;;;;5012226;28;19940;-69
2022/10/08 02:37:41;;;;;;;;;;;19.90;99.90;;;;;;5015514;28;20420;-67
2022/10/08 02:40:10;;;;;;;;;;;19.90;99.90;;;;;;5016960;28;19925;-68
2022/10/08 02:42:39;;;;;;;;;;;19.90;99.90;;;;;;5004523;28;19932;-68
2022/10/08 02:45:17;;;;;;;;;;;19.90;99.90;;;;;;5010273;28;20417;-67
2022/10/08 02:47:46;;;;;;;;;;;19.90;99.90;;;;;;5004406;28;19930;-70
2022/10/08 02:50:17;;;;;;;;;;;19.90;99.90;;;;;;5005962;28;19933;-69
2022/10/08 02:52:44;;;;;;;;;;;19.90;99.90;;;;;;5007267;28;19936;-70
2022/10/08 02:55:31;;;;;;;;;;;19.80;99.90;;;;;;4996272;28;20385;-70
2022/10/08 02:58:00;;;;;;;;;;;19.80;99.90;;;;;;5003449;28;19930;-69
2022/10/08 03:00:32;;;;;;;;;;;19.80;99.90;;;;;;5017627;28;20549;-71
2022/10/08 03:03:20;;;;;;;;;;;19.80;99.90;;;;;;5011452;28;19935;-71
2022/10/08 03:05:47;;;;;;;;;;;19.80;99.90;;;;;;5034430;28;19929;-69
2022/10/08 03:08:15;;;;;;;;;;;19.80;99.90;;;;;;5033572;28;19940;-71
2022/10/08 03:10:42;;;;;;;;;;;19.80;99.90;;;;;;5029432;28;20020;-71
2022/10/08 03:13:11;;;;;;;;;;;19.80;99.90;;;;;;5023949;28;20483;-69
2022/10/08 03:15:39;;;;;;;;;;;19.80;99.90;;;;;;5016518;28;19929;-68
2022/10/08 03:18:07;;;;;;;;;;;19.80;99.90;;;;;;5008423;28;19948;-70
2022/10/08 03:20:39;;;;;;;;;;;19.80;99.90;;;;;;5004091;28;19929;-69
2022/10/08 03:23:06;;;;;;;;;;;19.80;99.90;;;;;;5010854;28;19936;-69
2022/10/08 03:25:33;;;;;;;;;;;19.80;99.90;;;;;;5008028;28;19941;-67
2022/10/08 03:28:00;;;;;;;;;;;19.80;99.90;;;;;;5008924;28;20358;-69
2022/10/08 03:30:28;;;;;;;;;;;19.80;99.90;;;;;;5004026;28;19933;-69
2022/10/08 03:32:55;;;;;;;;;;;19.70;99.90;;;;;;5003716;28;20012;-69
2022/10/08 03:35:22;;;;;;;;;;;19.70;99.90;;;;;;5022280;28;19933;-68
2022/10/08 03:37:50;;;;;;;;;;;19.80;99.90;;;;;;5008519;28;19936;-69
2022/10/08 03:40:18;;;;;;;;;;;19.70;99.90;;;;;;5010603;28;19933;-67
2022/10/08 03:42:45;;;;;;;;;;;19.70;99.90;;;;;;5005355;28;19941;-69
2022/10/08 03:45:12;;;;;;;;;;;19.70;99.90;;;;;;5008052;28;19934;-69
2022/10/08 03:47:40;;;;;;;;;;;19.80;99.90;;;;;;5002968;28;19930;-68
2022/10/08 03:50:07;;;;;;;;;;;19.80;99.90;;;;;;5014502;28;19926;-68
2022/10/08 03:52:34;;;;;;;;;;;19.70;99.90;;;;;;4998129;28;19937;-68
2022/10/08 03:55:01;;;;;;;;;;;19.70;99.90;;;;;;5007996;28;19930;-70
2022/10/08 03:57:28;;;;;;;;;;;19.80;99.90;;;;;;5024515;28;19940;-69
2022/10/08 03:59:55;;;;;;;;;;;19.70;99.90;;;;;;5002555;28;19937;-71
2022/10/08 04:02:22;;;;;;;;;;;19.80;99.90;;;;;;4996530;28;19930;-68
2022/10/08 04:04:49;;;;;;;;;;;19.80;99.90;;;;;;5008600;28;19930;-69
2022/10/08 04:07:16;;;;;;;;;;;19.80;99.90;;;;;;5014684;28;19936;-69
2022/10/08 04:09:43;;;;;;;;;;;19.90;99.90;;;;;;5007423;28;19979;-70
2022/10/08 04:12:10;;;;;;;;;;;20.10;99.90;;;;;;5006081;28;19949;-68
2022/10/08 04:14:37;;;;;;;;;;;20.50;99.90;;;;;;4998089;28;19929;-68
2022/10/08 04:17:04;;;;;;;;;;;20.80;99.90;;;;;;5011572;28;19936;-71
2022/10/08 04:19:31;;;;;;;;;;;21.10;99.90;;;;;;5020051;28;19932;-69
2022/10/08 04:21:58;;;;;;;;;;;21.20;99.90;;;;;;5012553;28;19929;-68
2022/10/08 04:24:25;;;;;;;;;;;21.50;99.90;;;;;;5006900;28;20348;-68
2022/10/08 04:26:52;;;;;;;;;;;21.60;99.90;;;;;;5021613;28;19929;-68
2022/10/08 04:29:19;;;;;;;;;;;21.70;99.90;;;;;;5001923;28;19930;-69
2022/10/08 04:31:46;;;;;;;;;;;21.80;99.90;;;;;;5007269;28;19929;-68
2022/10/08 04:34:13;;;;;;;;;;;21.90;99.90;;;;;;5004789;28;19934;-69
2022/10/08 04:36:40;;;;;;;;;;;22.00;99.90;;;;;;5003895;28;20380;-68
2022/10/08 04:39:07;;;;;;;;;;;22.00;99.90;;;;;;5012672;28;20323;-70
2022/10/08 04:41:34;;;;;;;;;;;22.10;99.90;;;;;;5021156;28;19929;-69
2022/10/08 04:44:01;;;;;;;;;;;22.20;99.90;;;;;;5007944;28;19997;-68
2022/10/08 04:46:28;;;;;;;;;;;22.20;99.90;;;;;;5012082;28;19937;-67
2022/10/08 04:48:56;;;;;;;;;;;22.20;99.90;;;;;;5014644;28;19925;-69
2022/10/08 04:51:24;;;;;;;;;;;22.20;99.90;;;;;;5017676;28;19930;-69
2022/10/08 04:53:51;;;;;;;;;;;22.20;99.90;;;;;;5018990;28;19933;-69
2022/10/08 04:56:22;;;;;;;;;;;22.10;99.90;;;;;;5010721;28;19929;-69
2022/10/08 04:58:50;;;;;;;;;;;22.10;99.90;;;;;;5006467;28;20361;-68
2022/10/08 05:01:18;;;;;;;;;;;22.10;99.90;;;;;;5004494;28;19925;-69
2022/10/08 05:03:46;;;;;;;;;;;22.10;99.90;;;;;;5011150;28;19932;-69
2022/10/08 05:06:15;;;;;;;;;;;22.00;99.90;;;;;;5001163;28;19930;-68
2022/10/08 05:08:42;;;;;;;;;;;22.00;99.90;;;;;;5017310;28;19937;-69
2022/10/08 05:11:10;;;;;;;;;;;21.90;99.90;;;;;;5000384;28;19930;-70
2022/10/08 05:13:37;;;;;;;;;;;21.90;99.90;;;;;;5014925;28;20507;-68
2022/10/08 05:16:05;;;;;;;;;;;21.90;99.90;;;;;;5014205;28;19929;-69
2022/10/08 05:18:33;;;;;;;;;;;21.80;99.90;;;;;;5010950;28;19925;-69
2022/10/08 05:21:01;;;;;;;;;;;21.80;99.90;;;;;;4999652;28;19925;-69
2022/10/08 05:23:28;;;;;;;;;;;21.80;99.90;;;;;;5007893;28;19949;-67
2022/10/08 05:25:55;;;;;;;;;;;21.70;99.90;;;;;;5022140;28;20405;-67
2022/10/08 05:28:22;;;;;;;;;;;21.70;99.90;;;;;;5028631;28;19929;-67
2022/10/08 05:30:49;;;;;;;;;;;21.70;99.90;;;;;;5005755;28;20404;-68
2022/10/08 05:33:16;;;;;;;;;;;21.70;99.90;;;;;;5012852;28;19937;-67
2022/10/08 05:35:43;;;;;;;;;;;21.60;99.90;;;;;;5010140;28;20324;-67
2022/10/08 05:38:10;;;;;;;;;;;21.60;99.90;;;;;;5018002;28;19929;-67
2022/10/08 05:40:39;;;;;;;;;;;21.60;99.90;;;;;;5015842;28;20397;-67
2022/10/08 05:43:06;;;;;;;;;;;21.50;99.90;;;;;;5014365;28;19933;-67
2022/10/08 05:45:33;;;;;;;;;;;21.50;99.90;;;;;;5006212;28;20024;-67
2022/10/08 05:48:00;;;;;;;;;;;21.50;99.90;;;;;;5009982;28;19925;-67
2022/10/08 05:50:27;;;;;;;;;;;21.40;99.90;;;;;;5019319;28;19929;-66
2022/10/08 05:52:54;;;;;;;;;;;21.40;99.90;;;;;;5011793;28;19937;-67
2022/10/08 05:55:21;;;;;;;;;;;21.40;99.90;;;;;;5012445;28;19937;-66
2022/10/08 05:57:48;;;;;;;;;;;21.30;99.90;;;;;;5015565;28;19932;-66
2022/10/08 06:00:15;;;;;;;;;;;21.30;99.90;;;;;;5015905;28;19929;-68
2022/10/08 06:02:42;;;;;;;;;;;21.30;99.90;;;;;;5015896;28;19936;-67
2022/10/08 06:05:10;;;;;;;;;;;21.30;99.90;;;;;;5014418;28;19929;-66
2022/10/08 06:07:37;;;;;;;;;;;21.20;99.90;;;;;;5012625;28;19936;-66
2022/10/08 06:10:04;;;;;;;;;;;21.20;99.90;;;;;;5011017;28;19933;-67
2022/10/08 06:12:31;;;;;;;;;;;21.20;99.90;;;;;;5019138;28;20410;-65
2022/10/08 06:14:58;;;;;;;;;;;21.20;99.90;;;;;;5022476;28;19929;-67
2022/10/08 06:17:25;;;;;;;;;;;21.20;99.90;;;;;;5013032;28;19944;-67
2022/10/08 06:19:52;;;;;;;;;;;21.20;99.90;;;;;;5015243;28;19952;-67
2022/10/08 06:22:19;;;;;;;;;;;21.20;99.90;;;;;;5024444;28;20200;-68
2022/10/08 06:24:46;;;;;;;;;;;21.20;99.90;;;;;;5014651;28;19929;-67
2022/10/08 06:27:13;;;;;;;;;;;21.30;99.90;;;;;;5009740;28;19933;-68
2022/10/08 06:29:40;;;;;;;;;;;21.30;99.90;;;;;;5013253;28;19937;-66
2022/10/08 06:32:08;;;;;;;;;;;21.30;99.90;;;;;;5012091;28;19937;-68
2022/10/08 06:34:35;;;;;;;;;;;21.40;99.90;;;;;;5018013;28;20389;-68
2022/10/08 06:37:02;;;;;;;;;;;21.40;99.90;;;;;;5006790;28;20452;-68
2022/10/08 06:39:29;;;;;;;;;;;21.50;99.90;;;;;;5021632;28;19929;-66
2022/10/08 06:41:56;;;;;;;;;;;21.50;99.90;;;;;;5016320;28;19925;-68
2022/10/08 06:44:28;;;;;;;;;;;21.50;99.90;;;;;;5018079;28;19929;-68
2022/10/08 06:46:55;;;;;;;;;;;21.60;99.90;;;;;;5014262;28;20420;-67
2022/10/08 06:49:25;;;;;;;;;;;21.60;99.90;;;;;;5012918;28;19934;-68
2022/10/08 06:51:52;;;;;;;;;;;21.70;99.90;;;;;;5011790;28;20153;-68
2022/10/08 06:54:19;;;;;;;;;;;21.60;99.90;;;;;;5010989;28;19936;-68
2022/10/08 06:56:46;;;;;;;;;;;21.70;99.90;;;;;;5014088;28;19929;-67
2022/10/08 06:59:13;;;;;;;;;;;21.60;99.90;;;;;;5015479;28;19933;-67
2022/10/08 07:01:40;;;;;;;;;;;21.70;99.90;;;;;;5007323;28;19929;-67
2022/10/08 07:04:09;;;;;;;;;;;21.60;99.90;;;;;;5008067;28;19932;-68
2022/10/08 07:06:36;;;;;;;;;;;21.60;99.90;;;;;;5013221;28;19932;-66
2022/10/08 07:09:04;;;;;;;;;;;21.60;99.90;;;;;;5017958;28;19929;-67
2022/10/08 07:11:32;;;;;;;;;;;21.60;99.90;;;;;;4993056;28;19925;-67
2022/10/08 07:13:59;;;;;;;;;;;21.60;99.90;;;;;;5010441;28;19930;-67
2022/10/08 07:16:27;;;;;;;;;;;21.50;99.90;;;;;;5017503;28;19929;-67
2022/10/08 07:18:57;;;;;;;;;;;21.50;99.90;;;;;;5004063;28;19936;-67
2022/10/08 07:21:25;;;;;;;;;;;21.50;99.90;;;;;;5022627;28;20304;-67
2022/10/08 07:23:52;;;;;;;;;;;21.50;99.90;;;;;;5004491;28;19937;-69
2022/10/08 07:26:20;;;;;;;;;;;21.40;99.90;;;;;;5021308;28;19945;-67
2022/10/08 07:28:49;;;;;;;;;;;21.40;99.90;;;;;;5016986;28;19936;-65
2022/10/08 07:31:17;;;;;;;;;;;21.40;99.90;;;;;;5027921;28;19949;-67
2022/10/08 07:33:45;;;;;;;;;;;21.40;99.90;;;;;;5013391;28;19929;-68
2022/10/08 07:36:13;;;;;;;;;;;21.30;99.90;;;;;;5014830;28;19926;-66
2022/10/08 07:38:40;;;;;;;;;;;21.30;99.90;;;;;;5015743;28;20332;-66
2022/10/08 07:41:09;;;;;;;;;;;21.30;99.90;;;;;;5010618;28;19930;-66
2022/10/08 07:43:36;;;;;;;;;;;21.30;99.90;;;;;;5019147;28;19930;-68
2022/10/08 07:46:07;;;;;;;;;;;21.30;99.90;;;;;;5011308;28;19932;-68
2022/10/08 07:48:37;;;;;;;;;;;21.20;99.90;;;;;;5009193;28;19929;-67
2022/10/08 07:51:05;;;;;;;;;;;21.20;99.90;;;;;;5015022;28;20320;-66
2022/10/08 07:53:33;;;;;;;;;;;21.20;99.90;;;;;;5018971;28;19933;-67
2022/10/08 07:56:01;;;;;;;;;;;21.20;99.90;;;;;;5017184;28;19929;-67
2022/10/08 07:58:28;;;;;;;;;;;21.20;99.90;;;;;;5021349;28;19937;-68
2022/10/08 08:00:59;;;;;;;;;;;21.20;99.90;;;;;;5011236;28;19929;-66
2022/10/08 08:03:26;;;;;;;;;;;21.20;99.90;;;;;;5010526;28;20017;-66
2022/10/08 08:05:58;;;;;;;;;;;21.30;99.90;;;;;;5008620;28;19926;-67
2022/10/08 08:08:25;;;;;;;;;;;21.20;99.90;;;;;;5020363;28;19936;-68
2022/10/08 08:10:56;;;;;;;;;;;21.30;99.90;;;;;;5008308;28;19929;-70
2022/10/08 08:13:24;;;;;;;;;;;21.30;99.90;;;;;;5016756;28;19953;-67
2022/10/08 08:15:57;;;;;;;;;;;21.30;99.90;;;;;;5000733;28;20401;-70
2022/10/08 08:18:26;;;;;;;;;;;21.40;99.90;;;;;;5018436;28;19933;-68
2022/10/08 08:21:01;;;;;;;;;;;21.40;99.90;;;;;;5006339;28;19925;-68
2022/10/08 08:23:29;;;;;;;;;;;21.50;99.90;;;;;;5001234;28;19933;-67
2022/10/08 08:25:58;;;;;;;;;;;21.50;99.90;;;;;;5009874;28;19968;-71
2022/10/08 08:28:26;;;;;;;;;;;21.50;99.90;;;;;;5008570;28;19930;-69
2022/10/08 08:30:53;;;;;;;;;;;21.50;99.90;;;;;;5008393;28;19937;-69
2022/10/08 08:33:20;;;;;;;;;;;21.60;99.90;;;;;;5014505;28;20403;-71
2022/10/08 08:35:54;;;;;;;;;;;21.60;99.90;;;;;;5009368;28;19929;-69
2022/10/08 08:38:21;;;;;;;;;;;21.60;99.90;;;;;;5006709;28;19930;-69
2022/10/08 08:40:48;;;;;;;;;;;21.60;99.90;;;;;;5008351;28;19933;-70
2022/10/08 08:43:15;;;;;;;;;;;21.60;99.90;;;;;;5010279;28;19925;-68
2022/10/08 08:45:45;;;;;;;;;;;21.60;99.90;;;;;;5008635;28;20313;-71
2022/10/08 08:48:20;;;;;;;;;;;21.60;99.90;;;;;;5006005;28;19934;-68
2022/10/08 08:50:49;;;;;;;;;;;21.60;99.90;;;;;;5021327;28;19932;-70
2022/10/08 08:53:17;;;;;;;;;;;21.70;99.90;;;;;;5008404;28;19930;-69
2022/10/08 08:55:46;;;;;;;;;;;21.60;99.90;;;;;;5006371;28;19944;-71
2022/10/08 08:58:25;;;;;;;;;;;21.70;99.90;;;;;;5010369;28;19953;-68
2022/10/08 09:00:59;;;;;;;;;;;21.70;99.90;;;;;;5013523;28;19929;-69
2022/10/08 09:03:33;;;;;;;;;;;21.60;99.90;;;;;;5000307;28;19930;-69
2022/10/08 09:06:04;;;;;;;;;;;21.60;99.90;;;;;;5003214;28;19941;-69
2022/10/08 09:08:38;;;;;;;;;;;21.60;99.90;;;;;;5013021;28;19936;-68
2022/10/08 09:11:05;;;;;;;;;;;21.60;99.90;;;;;;5009217;28;19936;-71
2022/10/08 09:13:35;;;;;;;;;;;21.60;99.90;;;;;;5013883;28;19933;-71
2022/10/08 09:16:03;;;;;;;;;;;21.60;99.90;;;;;;4998597;28;19933;-70
2022/10/08 09:18:30;;;;;;;;;;;21.60;99.90;;;;;;5010197;28;19929;-69
2022/10/08 09:20:57;;;;;;;;;;;21.50;99.90;;;;;;5017283;28;19926;-68
2022/10/08 09:23:25;;;;;;;;;;;21.50;99.90;;;;;;5007380;28;19945;-69
2022/10/08 09:26:13;;;;;;;;;;;21.50;99.90;;;;;;5016646;28;20277;-69
2022/10/08 09:28:40;;;;;;;;;;;21.50;99.90;;;;;;5009529;28;19940;-68
2022/10/08 09:31:28;;;;;;;;;;;21.40;99.90;;;;;;5006721;28;19930;-70
2022/10/08 09:34:15;;;;;;;;;;;21.40;99.90;;;;;;5009755;28;20024;-69
2022/10/08 09:36:51;;;;;;;;;;;21.40;99.90;;;;;;5013145;28;19933;-71
2022/10/08 09:39:23;;;;;;;;;;;21.40;99.90;;;;;;4999925;28;19930;-70
2022/10/08 09:42:05;;;;;;;;;;;21.30;99.90;;;;;;5018779;28;19936;-69
2022/10/08 09:44:51;;;;;;;;;;;21.30;99.90;;;;;;5004622;28;19929;-70
2022/10/08 09:47:19;;;;;;;;;;;21.30;99.90;;;;;;5012590;28;19930;-67
2022/10/08 09:50:01;;;;;;;;;;;21.20;99.90;;;;;;5013468;28;19936;-66
2022/10/08 09:52:28;;;;;;;;;;;21.20;99.90;;;;;;5011758;28;19933;-69
2022/10/08 09:54:59;;;;;;;;;;;21.20;99.90;;;;;;5017551;28;19948;-70
2022/10/08 09:57:27;;;;;;;;;;;21.20;99.90;;;;;;5022622;28;19936;-71
2022/10/08 09:59:58;;;;;;;;;;;21.20;99.90;;;;;;4999875;28;19949;-69
2022/10/08 10:02:25;;;;;;;;;;;21.20;99.90;;;;;;5003824;28;19937;-71
2022/10/08 10:04:54;;;;;;;;;;;21.20;99.90;;;;;;5004848;28;19930;-69
2022/10/08 10:07:21;;;;;;;;;;;21.20;99.90;;;;;;5013273;28;19941;-69
2022/10/08 10:09:51;;;;;;;;;;;21.20;99.90;;;;;;5017940;28;20302;-71
2022/10/08 10:12:31;;;;;;;;;;;21.20;99.90;;;;;;5009305;28;19937;-70
2022/10/08 10:15:04;;;;;;;;;;;21.20;99.90;;;;;;5010199;28;19929;-70
2022/10/08 10:17:37;;;;;;;;;;;21.20;99.90;;;;;;5016435;28;19930;-70
2022/10/08 10:20:22;;;;;;;;;;;21.20;99.90;;;;;;5015553;28;19942;-70
2022/10/08 10:22:49;;;;;;;;;;;21.20;99.90;;;;;;5008985;28;19936;-69
2022/10/08 10:25:29;;;;;;;;;;;21.20;99.90;;;;;;5004004;28;20340;-67
2022/10/08 10:28:06;;;;;;;;;;;21.20;99.90;;;;;;5006728;28;19926;-69
2022/10/08 10:30:53;;;;;;;;;;;21.20;99.90;;;;;;5015718;28;19925;-69
2022/10/08 10:33:23;;;;;;;;;;;21.30;99.90;;;;;;5011628;28;19926;-67
2022/10/08 10:35:56;;;;;;;;;;;21.40;99.90;;;;;;5007516;28;20296;-68
2022/10/08 10:38:31;;;;;;;;;;;21.40;99.90;;;;;;5002727;28;19926;-69
2022/10/08 10:41:04;;;;;;;;;;;21.40;99.90;;;;;;5011294;28;20627;-71
2022/10/08 10:43:38;;;;;;;;;;;21.50;99.90;;;;;;5003841;28;19936;-69
2022/10/08 10:46:08;;;;;;;;;;;21.50;99.90;;;;;;5029526;28;20320;-69
2022/10/08 10:48:35;;;;;;;;;;;21.60;99.90;;;;;;5001897;28;19933;-66
2022/10/08 10:51:08;;;;;;;;;;;21.60;99.90;;;;;;5014310;28;20332;-66
2022/10/08 10:53:44;;;;;;;;;;;21.60;99.90;;;;;;5004072;28;19933;-70
2022/10/08 10:56:11;;;;;;;;;;;21.60;99.90;;;;;;5011549;28;19977;-67
2022/10/08 10:58:38;;;;;;;;;;;21.60;99.90;;;;;;5014777;28;20385;-72
2022/10/08 11:01:14;;;;;;;;;;;21.60;99.90;;;;;;5007770;28;20412;-69
2022/10/08 11:03:48;;;;;;;;;;;21.60;99.90;;;;;;5017717;28;19925;-73
2022/10/08 11:06:27;;;;;;;;;;;21.50;99.90;;;;;;5009647;28;19933;-69
2022/10/08 11:08:59;;;;;;;;;;;21.50;99.90;;;;;;5028346;28;19995;-69
2022/10/08 11:11:39;;;;;;;;;;;21.50;99.90;;;;;;5017332;28;20320;-69
2022/10/08 11:14:25;;;;;;;;;;;21.50;99.90;;;;;;5012768;28;19926;-69
2022/10/08 11:17:16;;;;;;;;;;;21.50;99.90;;;;;;5008083;28;20356;-72
2022/10/08 11:19:57;;;;;;;;;;;21.50;99.90;;;;;;4988155;28;20303;-69
2022/10/08 11:22:33;;;;;;;;;;;21.40;99.90;;;;;;5007926;28;19949;-68
2022/10/08 11:25:00;;;;;;;;;;;21.40;99.90;;;;;;5012138;28;19940;-70
2022/10/08 11:27:41;;;;;;;;;;;21.40;99.90;;;;;;5023239;28;19933;-70
2022/10/08 11:30:10;;;;;;;;;;;21.40;99.90;;;;;;5017813;28;19926;-70
2022/10/08 11:32:39;;;;;;;;;;;21.40;99.90;;;;;;5014830;28;19929;-69
2022/10/08 11:35:25;;;;;;;;;;;21.40;99.90;;;;;;5021473;28;19933;-69
2022/10/08 11:38:03;;;;;;;;;;;21.40;99.90;;;;;;5018228;28;20415;-69
2022/10/08 11:40:41;;;;;;;;;;;21.40;99.90;;;;;;5009742;28;19933;-70
2022/10/08 11:43:29;;;;;;;;;;;21.30;99.90;;;;;;5018482;28;20305;-72
2022/10/08 11:46:19;;;;;;;;;;;21.30;99.90;;;;;;5017591;28;19929;-71
2022/10/08 11:48:47;;;;;;;;;;;21.30;99.90;;;;;;5026858;28;19940;-70
2022/10/08 11:51:17;;;;;;;;;;;21.30;99.90;;;;;;5030316;28;19933;-73
2022/10/08 11:54:03;;;;;;;;;;;21.20;99.90;;;;;;5027837;28;19933;-69
2022/10/08 11:56:32;;;;;;;;;;;21.20;99.90;;;;;;5016108;28;20333;-69
2022/10/08 11:59:02;;;;;;;;;;;21.20;99.90;;;;;;5009150;28;19929;-72
2022/10/08 12:01:29;;;;;;;;;;;21.20;99.90;;;;;;5018130;28;19929;-72
2022/10/08 12:04:00;;;;;;;;;;;21.20;99.90;;;;;;5010171;28;19926;-67
2022/10/08 12:06:29;;;;;;;;;;;21.20;99.90;;;;;;5010211;28;19933;-70
2022/10/08 12:08:56;;;;;;;;;;;21.30;99.90;;;;;;5006228;28;19941;-68
2022/10/08 12:11:38;;;;;;;;;;;21.30;99.90;;;;;;5006116;28;20326;-70
2022/10/08 12:14:25;;;;;;;;;;;21.30;99.90;;;;;;5000095;28;20509;-69
2022/10/08 12:16:56;;;;;;;;;;;21.40;99.90;;;;;;5021047;28;19930;-71
2022/10/08 12:19:32;;;;;;;;;;;21.40;99.90;;;;;;5016681;28;19937;-68
2022/10/08 12:22:23;;;;;;;;;;;21.50;99.90;;;;;;5013713;28;20025;-67
2022/10/08 12:24:52;;;;;;;;;;;21.50;99.90;;;;;;5000664;28;20421;-67
2022/10/08 12:27:19;;;;;;;;;;;21.50;99.90;;;;;;5011111;28;19941;-70
2022/10/08 12:29:56;;;;;;;;;;;21.60;99.90;;;;;;5012111;28;19936;-69
2022/10/08 12:32:27;;;;;;;;;;;21.60;99.90;;;;;;5007101;28;20435;-70
2022/10/08 12:34:55;;;;;;;;;;;21.60;99.90;;;;;;5021048;28;19929;-70
2022/10/08 12:37:22;;;;;;;;;;;21.60;99.90;;;;;;5007303;28;20032;-69
2022/10/08 12:39:50;;;;;;;;;;;21.60;99.90;;;;;;5007497;28;21451;-71
2022/10/08 12:42:23;;;;;;;;;;;21.60;99.90;;;;;;5004397;28;19926;-70
2022/10/08 12:45:05;;;;;;;;;;;21.60;99.90;;;;;;5015829;28;20305;-69
2022/10/08 12:47:39;;;;;;;;;;;21.60;99.90;;;;;;5011180;28;19932;-69
2022/10/08 12:50:25;;;;;;;;;;;21.60;99.90;;;;;;5009247;28;19926;-68
2022/10/08 12:52:52;;;;;;;;;;;21.60;99.90;;;;;;5008205;28;20322;-68
2022/10/08 12:55:21;;;;;;;;;;;21.60;99.90;;;;;;5011054;28;20317;-69
2022/10/08 12:57:49;;;;;;;;;;;21.60;99.90;;;;;;5010091;28;20304;-70
2022/10/08 13:00:17;;;;;;;;;;;21.60;99.90;;;;;;5011279;28;19930;-68
2022/10/08 13:02:56;;;;;;;;;;;21.50;99.90;;;;;;5002922;28;19937;-69
2022/10/08 13:05:26;;;;;;;;;;;21.50;99.90;;;;;;5019656;28;19925;-69
2022/10/08 13:07:53;;;;;;;;;;;21.50;99.90;;;;;;5006981;28;19941;-67
2022/10/08 13:10:22;;;;;;;;;;;21.50;99.90;;;;;;5003747;28;19925;-68
2022/10/08 13:12:59;;;;;;;;;;;21.50;99.90;;;;;;5001486;28;19934;-73
2022/10/08 13:15:26;;;;;;;;;;;21.50;99.90;;;;;;5003976;28;19949;-68
2022/10/08 13:17:53;;;;;;;;;;;21.60;99.90;;;;;;5008053;28;19926;-69
2022/10/08 13:20:21;;;;;;;;;;;21.60;99.90;;;;;;5012166;28;19926;-68
2022/10/08 13:22:49;;;;;;;;;;;21.60;99.90;;;;;;5019405;28;19932;-68
2022/10/08 13:25:31;;;;;;;;;;;21.60;99.90;;;;;;5004195;28;20456;-70
2022/10/08 13:28:09;;;;;;;;;;;21.60;99.90;;;;;;5009735;28;19940;-71
2022/10/08 13:30:37;;;;;;;;;;;21.60;99.90;;;;;;5005481;28;20060;-70
2022/10/08 13:33:08;;;;;;;;;;;21.60;99.90;;;;;;5010346;28;19925;-70
2022/10/08 13:35:36;;;;;;;;;;;21.70;99.90;;;;;;5007992;28;19936;-69
2022/10/08 13:38:05;;;;;;;;;;;21.70;99.90;;;;;;5001169;28;19930;-70
2022/10/08 13:40:33;;;;;;;;;;;21.60;99.90;;;;;;5017890;28;20385;-70
2022/10/08 13:43:00;;;;;;;;;;;21.70;99.90;;;;;;5029068;28;19929;-67
2022/10/08 13:45:29;;;;;;;;;;;21.60;99.90;;;;;;5026633;28;19984;-70
2022/10/08 13:47:57;;;;;;;;;;;21.60;99.90;;;;;;5012665;28;19948;-69
2022/10/08 13:50:24;;;;;;;;;;;21.50;99.90;;;;;;5021530;28;19930;-71
2022/10/08 13:52:54;;;;;;;;;;;21.50;99.90;;;;;;5020620;28;19930;-70
2022/10/08 13:55:25;;;;;;;;;;;21.50;99.90;;;;;;5011899;28;19925;-66
2022/10/08 13:57:53;;;;;;;;;;;21.40;99.90;;;;;;5002658;28;19930;-70
2022/10/08 14:00:21;;;;;;;;;;;21.40;99.90;;;;;;5016170;28;20331;-70
2022/10/08 14:02:50;;;;;;;;;;;21.40;99.90;;;;;;5020392;28;19925;-70
2022/10/08 14:05:18;;;;;;;;;;;21.40;99.90;;;;;;5011957;28;19934;-69
2022/10/08 14:07:47;;;;;;;;;;;21.40;99.90;;;;;;5016187;28;19925;-66
2022/10/08 14:10:17;;;;;;;;;;;21.40;99.90;;;;;;5021248;28;19936;-71
2022/10/08 14:12:44;;;;;;;;;;;21.40;99.90;;;;;;5008875;28;19936;-68
2022/10/08 14:15:11;;;;;;;;;;;21.40;99.90;;;;;;5030183;28;19932;-69
2022/10/08 14:17:43;;;;;;;;;;;21.40;99.90;;;;;;5010196;28;19929;-67
2022/10/08 14:20:11;;;;;;;;;;;21.40;99.90;;;;;;5015139;28;19937;-66
2022/10/08 14:22:38;;;;;;;;;;;21.40;99.90;;;;;;5009432;28;19926;-67
2022/10/08 14:25:14;;;;;;;;;;;21.50;99.90;;;;;;5025230;28;19933;-68
2022/10/08 14:27:42;;;;;;;;;;;21.40;99.90;;;;;;5016864;28;19933;-68
2022/10/08 14:30:10;;;;;;;;;;;21.50;99.90;;;;;;5023519;28;19933;-67
2022/10/08 14:32:37;;;;;;;;;;;21.50;99.90;;;;;;5023761;28;19940;-67
2022/10/08 14:35:05;;;;;;;;;;;21.60;99.90;;;;;;5012333;28;19930;-68